Hemphill County Airport


Codes: KHHF/
Name: Hemphill County Airport
City: Canadian
Country: United States
Elevation: 2396 ft.

Photos at Hemphill County Airport


   Photos courtesy of SpottingLog. You can add your own sightings and photos by signing up for a free trial today.



No photos found.

Weather at Hemphill County Airport


Time (UTC)DescriptionTempratureWindCloud coverageVisibilityPressureHumidity
13-Jun-2024 03:00Clear Sky30°C18 mph, S0%10000m1012hPa42%
13-Jun-2024 06:00Clear Sky27°C16 mph, S0%10000m1012hPa59%
13-Jun-2024 09:00Clear Sky22°C13 mph, S0%10000m1011hPa81%
13-Jun-2024 12:00Clear Sky22°C11 mph, S0%10000m1012hPa82%
13-Jun-2024 15:00Clear Sky31°C16 mph, SW1%10000m1011hPa42%
13-Jun-2024 18:00Clear Sky38°C16 mph, SW1%10000m1010hPa25%
13-Jun-2024 21:00Clear Sky40°C18 mph, SW0%10000m1008hPa20%
14-Jun-2024 00:00Clear Sky38°C22 mph, S1%10000m1007hPa24%
14-Jun-2024 03:00Light Rain30°C13 mph, SW21%10000m1011hPa43%
14-Jun-2024 06:00Light Rain26°C11 mph, S61%10000m1011hPa56%
14-Jun-2024 09:00Broken Clouds23°C0 mph, E51%10000m1013hPa70%
14-Jun-2024 12:00Light Rain22°C7 mph, SE47%10000m1014hPa78%
14-Jun-2024 15:00Scattered Clouds31°C13 mph, S47%10000m1013hPa45%
14-Jun-2024 18:00Scattered Clouds38°C13 mph, S29%10000m1011hPa21%
14-Jun-2024 21:00Scattered Clouds39°C20 mph, S32%10000m1009hPa18%
15-Jun-2024 00:00Few Clouds36°C22 mph, S17%10000m1008hPa24%
15-Jun-2024 03:00Scattered Clouds29°C16 mph, S37%10000m1010hPa38%
15-Jun-2024 06:00Broken Clouds26°C7 mph, S58%10000m1011hPa55%
15-Jun-2024 09:00Overcast Clouds25°C9 mph, S100%10000m1010hPa56%
15-Jun-2024 12:00Light Rain23°C9 mph, S99%10000m1011hPa64%
15-Jun-2024 15:00Broken Clouds30°C20 mph, S66%10000m1009hPa41%
15-Jun-2024 18:00Broken Clouds35°C20 mph, S58%10000m1007hPa27%
15-Jun-2024 21:00Scattered Clouds37°C25 mph, S39%10000m1004hPa23%
16-Jun-2024 00:00Scattered Clouds36°C29 mph, S49%10000m1001hPa25%
16-Jun-2024 03:00Light Rain27°C22 mph, S44%10000m1004hPa50%
16-Jun-2024 06:00Moderate Rain23°C20 mph, S60%10000m1007hPa68%
16-Jun-2024 09:00Few Clouds23°C20 mph, S17%10000m1006hPa71%
16-Jun-2024 12:00Few Clouds22°C20 mph, S11%10000m1007hPa74%
16-Jun-2024 15:00Clear Sky29°C22 mph, S0%10000m1006hPa43%
16-Jun-2024 18:00Clear Sky35°C22 mph, S1%10000m1004hPa33%
16-Jun-2024 21:00Clear Sky37°C25 mph, S0%10000m1002hPa28%
17-Jun-2024 00:00Clear Sky36°C29 mph, S0%10000m1000hPa31%
17-Jun-2024 03:00Scattered Clouds30°C25 mph, SE26%10000m1003hPa43%
17-Jun-2024 06:00Broken Clouds27°C27 mph, S65%10000m1003hPa57%
17-Jun-2024 09:00Broken Clouds25°C27 mph, S60%10000m1003hPa69%
17-Jun-2024 12:00Scattered Clouds25°C25 mph, S42%10000m1004hPa64%
17-Jun-2024 15:00Clear Sky29°C27 mph, S1%10000m1004hPa50%
17-Jun-2024 18:00Clear Sky35°C29 mph, S1%10000m1002hPa35%
17-Jun-2024 21:00Clear Sky38°C31 mph, S7%10000m1000hPa26%
18-Jun-2024 00:00Clear Sky38°C31 mph, S4%10000m998hPa24%